Time;durP1;ratioP1;P1;durP2;ratioP2;P2;SDS_P1;SDS_P2;PMS_P1;PMS_P2;Temp;Humidity;BMP_temperature;BMP_pressure;BME280_temperature;BME280_humidity;BME280_pressure;Samples;Min_cycle;Max_cycle;Signal;HPM_P1;HPM_P2
2021/11/08 00:07:53;;;;;;;0.20;0.10;;;12.10;99.90;;;;;;20505994;28;20287;-73
2021/11/08 00:18:02;;;;;;;0.20;0.10;;;12.00;99.90;;;;;;20576097;28;20220;-73
2021/11/08 00:28:07;;;;;;;0.20;0.10;;;12.10;99.90;;;;;;20583394;28;20283;-73
2021/11/08 00:38:13;;;;;;;0.20;0.10;;;12.00;99.90;;;;;;20564353;28;20652;-73
2021/11/08 00:48:20;;;;;;;0.20;0.10;;;12.00;99.90;;;;;;20582411;28;20196;-74
2021/11/08 00:58:28;;;;;;;0.20;0.10;;;11.60;99.90;;;;;;20579840;28;20323;-74
2021/11/08 01:08:32;;;;;;;0.30;0.30;;;11.90;99.90;;;;;;20580638;28;20207;-72
2021/11/08 01:18:37;;;;;;;0.20;0.10;;;12.30;99.90;;;;;;20580309;28;20568;-72
2021/11/08 01:28:45;;;;;;;0.20;0.10;;;11.90;99.90;;;;;;20579282;28;20220;-74
2021/11/08 01:38:51;;;;;;;0.20;0.10;;;11.80;99.90;;;;;;20575888;28;20266;-72
2021/11/08 01:48:54;;;;;;;0.20;0.10;;;11.70;99.90;;;;;;20577379;28;20561;-73
2021/11/08 01:59:00;;;;;;;0.20;0.10;;;11.80;99.90;;;;;;20575244;28;20271;-73
2021/11/08 02:09:04;;;;;;;0.20;0.10;;;11.90;99.90;;;;;;20577403;28;20200;-72
2021/11/08 02:19:11;;;;;;;0.20;0.10;;;12.10;99.90;;;;;;20575503;28;20239;-72
2021/11/08 02:29:19;;;;;;;0.20;0.10;;;12.00;99.90;;;;;;20527725;28;20683;-73
2021/11/08 02:39:29;;;;;;;0.77;0.77;;;11.90;99.90;;;;;;20558688;28;20247;-74
2021/11/08 02:49:40;;;;;;;0.20;0.10;;;12.00;99.90;;;;;;20581176;28;20210;-73
2021/11/08 02:59:43;;;;;;;0.20;0.10;;;11.70;99.90;;;;;;20573622;28;20334;-73
2021/11/08 03:09:54;;;;;;;0.20;0.10;;;11.80;99.90;;;;;;20589792;28;20286;-72
2021/11/08 03:19:57;;;;;;;0.20;0.10;;;11.70;99.90;;;;;;20589079;28;20219;-73
2021/11/08 03:30:03;;;;;;;0.20;0.10;;;11.60;99.90;;;;;;20586732;28;20227;-72
2021/11/08 03:40:08;;;;;;;0.20;0.10;;;11.60;99.90;;;;;;20586926;28;20334;-70
2021/11/08 03:50:14;;;;;;;0.20;0.10;;;11.60;99.90;;;;;;20568865;28;20539;-71
2021/11/08 04:00:19;;;;;;;0.20;0.10;;;11.60;99.90;;;;;;20584211;28;20264;-72
2021/11/08 04:10:25;;;;;;;0.20;0.10;;;11.50;99.90;;;;;;20584697;28;20201;-71
2021/11/08 04:20:29;;;;;;;0.20;0.10;;;11.60;99.90;;;;;;20584224;28;20310;-72
2021/11/08 04:30:37;;;;;;;0.20;0.10;;;11.50;99.90;;;;;;20584049;28;20224;-72
2021/11/08 04:40:45;;;;;;;0.20;0.10;;;11.40;99.90;;;;;;20582055;28;20224;-72
2021/11/08 04:50:54;;;;;;;0.20;0.10;;;11.40;99.90;;;;;;20582537;28;20315;-72
2021/11/08 05:22:03;;;;;;;0.20;0.10;;;10.90;99.90;;;;;;20502712;28;20697;-72
2021/11/08 05:32:09;;;;;;;0.20;0.10;;;10.80;99.90;;;;;;20503108;29;20197;-74
2021/11/08 05:42:12;;;;;;;0.20;0.10;;;11.20;99.90;;;;;;20495409;29;20250;-73
2021/11/08 05:52:17;;;;;;;0.20;0.10;;;11.30;99.90;;;;;;20449654;29;20216;-72
2021/11/08 06:54:12;;;;;;;0.20;0.10;;;10.60;99.90;;;;;;20412004;29;20312;-72
2021/11/08 07:04:16;;;;;;;0.20;0.10;;;10.60;99.90;;;;;;20413245;29;20229;-75
2021/11/08 07:14:21;;;;;;;0.20;0.10;;;10.80;99.90;;;;;;20411041;29;20225;-73
2021/11/08 07:24:25;;;;;;;0.20;0.10;;;11.00;99.90;;;;;;20396681;29;20210;-72
2021/11/08 07:34:30;;;;;;;0.20;0.10;;;11.10;99.90;;;;;;20461450;28;20644;-74
2021/11/08 07:44:34;;;;;;;0.20;0.10;;;11.40;99.90;;;;;;20504544;29;20578;-75
2021/11/08 07:54:39;;;;;;;0.20;0.20;;;11.80;99.90;;;;;;20503972;29;20461;-74
2021/11/08 08:04:43;;;;;;;0.20;0.10;;;12.30;99.90;;;;;;20487159;28;20284;-74
2021/11/08 08:14:49;;;;;;;0.20;0.10;;;12.70;99.90;;;;;;20497539;29;20247;-72
2021/11/08 08:24:52;;;;;;;0.20;0.10;;;13.00;99.90;;;;;;20497811;29;20207;-73
2021/11/08 08:34:57;;;;;;;0.43;0.37;;;13.30;99.90;;;;;;20502485;29;20272;-72
2021/11/08 08:45:01;;;;;;;0.20;0.10;;;13.60;99.90;;;;;;20501379;28;20200;-71
2021/11/08 08:55:08;;;;;;;0.20;0.10;;;13.80;99.90;;;;;;20500418;29;20307;-72
2021/11/08 09:05:11;;;;;;;0.20;0.10;;;14.40;99.90;;;;;;20499469;28;20228;-73
2021/11/08 09:15:17;;;;;;;0.20;0.10;;;14.80;99.90;;;;;;20524071;29;20639;-72
2021/11/08 09:25:22;;;;;;;0.20;0.10;;;15.30;99.90;;;;;;20510503;28;20378;-72
2021/11/08 09:35:32;;;;;;;0.20;0.10;;;15.70;99.90;;;;;;20490761;28;20228;-73
2021/11/08 09:45:35;;;;;;;0.20;0.10;;;16.20;99.90;;;;;;20473466;28;20650;-71
2021/11/08 09:55:42;;;;;;;0.20;0.10;;;16.60;99.90;;;;;;20488745;28;20217;-70
2021/11/08 10:05:48;;;;;;;0.20;0.00;;;17.00;99.90;;;;;;20486328;29;20687;-71
2021/11/08 10:15:58;;;;;;;0.20;0.10;;;17.30;99.90;;;;;;20487678;28;20220;-71
2021/11/08 10:26:08;;;;;;;0.20;0.10;;;17.80;99.90;;;;;;20495683;28;20215;-73
2021/11/08 10:36:16;;;;;;;0.20;0.10;;;18.10;99.90;;;;;;20491243;29;20224;-71
2021/11/08 10:46:22;;;;;;;0.20;0.10;;;18.90;99.90;;;;;;20476233;29;20288;-72
2021/11/08 10:56:30;;;;;;;0.20;0.03;;;19.30;99.90;;;;;;20493265;29;20716;-69
2021/11/08 11:06:39;;;;;;;0.20;0.10;;;19.60;99.90;;;;;;20493082;28;20312;-71
2021/11/08 11:16:49;;;;;;;0.20;0.10;;;20.10;99.90;;;;;;20508524;29;20255;-71
2021/11/08 11:26:53;;;;;;;0.20;0.10;;;20.50;99.90;;;;;;20506402;29;20197;-70
2021/11/08 11:36:58;;;;;;;0.20;0.10;;;20.80;99.90;;;;;;20505655;29;20233;-73
2021/11/08 11:47:02;;;;;;;0.20;0.10;;;20.90;99.90;;;;;;20504201;29;20240;-73
2021/11/08 11:57:08;;;;;;;0.20;0.10;;;21.00;99.90;;;;;;20501939;28;20714;-73
2021/11/08 12:07:18;;;;;;;0.20;0.10;;;21.30;99.90;;;;;;20497189;28;20311;-72
2021/11/08 12:17:25;;;;;;;0.20;0.00;;;21.80;99.90;;;;;;20495497;28;20256;-72
2021/11/08 12:27:38;;;;;;;0.97;0.93;;;22.20;99.90;;;;;;20500845;28;20216;-72
2021/11/08 12:37:43;;;;;;;0.20;0.00;;;22.60;99.90;;;;;;20499853;28;20761;-72
2021/11/08 12:47:47;;;;;;;0.20;0.10;;;22.90;99.90;;;;;;20499290;29;20197;-72
2021/11/08 12:57:55;;;;;;;0.20;0.10;;;22.70;99.90;;;;;;20500239;29;20228;-73
2021/11/08 13:07:59;;;;;;;0.20;0.03;;;22.30;99.90;;;;;;20497064;29;20271;-72
2021/11/08 13:18:06;;;;;;;0.20;0.10;;;21.70;99.90;;;;;;20497355;29;20256;-72
2021/11/08 13:28:13;;;;;;;0.20;0.10;;;22.10;99.90;;;;;;20495962;29;20288;-72
2021/11/08 13:38:21;;;;;;;0.20;0.00;;;23.00;99.90;;;;;;20488314;28;20311;-74
2021/11/08 13:48:30;;;;;;;0.20;0.00;;;23.70;99.90;;;;;;20488985;29;20228;-71
2021/11/08 13:58:36;;;;;;;0.20;0.10;;;24.30;99.90;;;;;;20489168;29;20225;-73
2021/11/08 14:08:46;;;;;;;0.20;0.00;;;24.90;99.90;;;;;;20491031;29;20256;-72
2021/11/08 14:18:55;;;;;;;0.20;0.00;;;24.00;99.90;;;;;;20488013;29;20254;-73
2021/11/08 14:29:00;;;;;;;0.20;0.00;;;24.50;99.90;;;;;;20493522;29;20244;-72
2021/11/08 14:39:11;;;;;;;0.20;0.00;;;24.20;99.90;;;;;;20494204;29;20235;-73
2021/11/08 14:49:17;;;;;;;0.20;0.08;;;23.80;99.90;;;;;;20502841;28;20208;-72
2021/11/08 14:59:29;;;;;;;0.20;0.00;;;23.20;99.90;;;;;;20486427;29;20311;-72
2021/11/08 15:09:41;;;;;;;0.20;0.00;;;23.00;99.90;;;;;;20505030;29;20252;-72
2021/11/08 15:19:47;;;;;;;0.20;0.10;;;20.60;99.90;;;;;;20502863;29;20216;-71
2021/11/08 15:29:51;;;;;;;0.20;0.10;;;19.30;99.90;;;;;;20506290;29;20646;-72
2021/11/08 15:39:56;;;;;;;0.20;0.10;;;18.80;99.90;;;;;;20503771;29;20307;-73
2021/11/08 15:50:00;;;;;;;0.20;0.10;;;18.70;99.90;;;;;;20485095;29;20208;-72
2021/11/08 16:00:07;;;;;;;0.20;0.10;;;18.10;99.90;;;;;;20498563;28;20232;-73
2021/11/08 16:10:11;;;;;;;0.20;0.10;;;17.90;99.90;;;;;;20483315;29;20335;-73
2021/11/08 16:20:16;;;;;;;0.20;0.00;;;17.60;99.90;;;;;;20499585;29;20656;-73
2021/11/08 16:30:20;;;;;;;0.20;0.10;;;17.30;99.90;;;;;;20496799;29;20259;-72
2021/11/08 16:40:26;;;;;;;0.20;0.10;;;16.80;99.90;;;;;;20496523;29;20259;-73
2021/11/08 16:50:33;;;;;;;0.20;0.10;;;16.30;99.90;;;;;;20496063;29;20220;-73
2021/11/08 17:00:39;;;;;;;0.20;0.00;;;15.80;99.90;;;;;;20498796;28;20236;-72
2021/11/08 17:11:01;;;;;;;0.20;0.00;;;15.40;99.90;;;;;;20497040;28;20236;-74
2021/11/08 17:21:06;;;;;;;0.20;0.10;;;15.00;99.90;;;;;;20494478;29;20279;-72
2021/11/08 17:31:11;;;;;;;0.20;0.00;;;14.60;99.90;;;;;;20492007;29;20197;-72
2021/11/08 17:41:16;;;;;;;0.20;0.00;;;14.50;99.90;;;;;;20417506;29;20285;-73
2021/11/08 17:51:20;;;;;;;0.20;0.10;;;14.10;99.90;;;;;;20433450;29;20281;-74
2021/11/08 18:01:26;;;;;;;0.20;0.00;;;14.10;99.90;;;;;;20494971;28;20451;-74
2021/11/08 18:11:35;;;;;;;0.20;0.00;;;13.90;99.90;;;;;;20498038;29;20196;-74
2021/11/08 18:21:52;;;;;;;0.20;0.10;;;13.80;99.90;;;;;;20478563;29;20228;-72
2021/11/08 18:31:58;;;;;;;0.20;0.03;;;13.60;99.90;;;;;;20479266;29;20189;-75
2021/11/08 18:42:04;;;;;;;0.20;0.10;;;13.40;99.90;;;;;;20494237;29;20595;-74
2021/11/08 18:52:08;;;;;;;0.20;0.10;;;13.30;99.90;;;;;;20532033;29;20205;-74
2021/11/08 19:02:17;;;;;;;0.20;0.10;;;13.50;99.90;;;;;;20522891;29;20243;-73
2021/11/08 19:12:24;;;;;;;0.20;0.10;;;13.60;99.90;;;;;;20479549;29;20211;-72
2021/11/08 19:22:29;;;;;;;0.20;0.10;;;13.60;99.90;;;;;;20494388;29;20689;-74
2021/11/08 19:32:43;;;;;;;0.20;0.00;;;13.30;99.90;;;;;;20477951;28;20228;-72
2021/11/08 19:42:49;;;;;;;0.20;0.03;;;13.50;99.90;;;;;;20509346;29;20296;-75
2021/11/08 19:52:53;;;;;;;0.20;0.10;;;13.40;99.90;;;;;;20508643;29;20228;-75
2021/11/08 20:02:59;;;;;;;0.20;0.00;;;13.40;99.90;;;;;;20540189;28;20235;-72
2021/11/08 20:13:10;;;;;;;0.20;0.10;;;13.10;99.90;;;;;;20585502;28;20218;-74
2021/11/08 20:23:17;;;;;;;0.20;0.10;;;13.10;99.90;;;;;;20566691;28;20351;-75
2021/11/08 20:33:37;;;;;;;0.20;0.10;;;12.80;99.90;;;;;;20567392;28;20196;-74
2021/11/08 20:44:12;;;;;;;0.20;0.10;;;12.50;99.90;;;;;;20518985;28;20254;-74
2021/11/08 20:54:22;;;;;;;0.20;0.10;;;12.90;99.90;;;;;;20578163;28;20299;-75
2021/11/08 21:14:50;;;;;;;0.20;0.00;;;12.60;99.90;;;;;;20558788;28;20207;-75
2021/11/08 21:24:59;;;;;;;0.20;0.10;;;12.80;99.90;;;;;;20583422;28;20323;-73
2021/11/08 21:45:27;;;;;;;0.40;0.17;;;13.30;99.90;;;;;;20478369;29;20706;-72
2021/11/08 21:55:32;;;;;;;0.30;0.30;;;13.40;99.90;;;;;;20494695;28;20197;-72
2021/11/08 22:05:37;;;;;;;0.20;0.10;;;13.30;99.90;;;;;;20493045;28;20339;-72
2021/11/08 22:15:43;;;;;;;0.20;0.10;;;13.10;99.90;;;;;;20494090;29;20625;-72
2021/11/08 22:25:52;;;;;;;0.20;0.10;;;13.00;99.90;;;;;;20476469;29;20586;-74
2021/11/08 22:36:01;;;;;;;0.20;0.10;;;13.20;99.90;;;;;;20424727;29;20232;-73
2021/11/08 22:46:06;;;;;;;0.20;0.10;;;13.30;99.90;;;;;;20412052;29;20575;-73
2021/11/08 22:56:11;;;;;;;0.20;0.10;;;13.60;99.90;;;;;;20377632;29;20573;-72
2021/11/08 23:06:17;;;;;;;0.20;0.10;;;13.20;99.90;;;;;;20417850;29;20233;-72
2021/11/08 23:16:24;;;;;;;0.20;0.10;;;13.10;99.90;;;;;;20429094;29;20197;-74
2021/11/08 23:26:30;;;;;;;0.20;0.10;;;12.70;99.90;;;;;;20430883;29;20702;-73
2021/11/08 23:36:34;;;;;;;0.20;0.10;;;12.40;99.90;;;;;;20470831;29;20613;-76
2021/11/08 23:46:39;;;;;;;0.20;0.10;;;12.40;99.90;;;;;;20490143;29;20252;-73
2021/11/08 23:56:42;;;;;;;0.20;0.00;;;12.40;99.90;;;;;;20490595;29;20606;-73
